Albatros — DITX — position and weather

sailwx.info

Track history (hours):
 
Tides and Currents Weather Stations Pressure Air Temp Water Temp Dewpoint Dewpoint Depression Visibility Wind Speed Wind Dir Waves Ship Positions

Albatros

Last reported at 2015-Feb-28 14:14 UTC. Time now 2015-Mar-07 04:26 UTC.
Position N 54°31' E 013°10'.

Length 16 m.

MMSI: 211226200.

Date/timePositionNaut miles runAvg speedWind from/ knotsBaromVisibWave heightAir tempDewpointWater temp
2015-Feb-28 14:14N 54°31' E 013°10'3 3.7
2015-Feb-28 13:33N 54°33' E 013°10'7 6.6
2015-Feb-28 12:33N 54°40' E 013°10'2 1.7
2015-Feb-28 11:32N 54°42' E 013°11'0 0.1
2015-Feb-28 09:23N 54°42' E 013°11'0 0.0
2015-Feb-28 08:33N 54°42' E 013°11'3 3.3
2015-Feb-28 07:33N 54°38' E 013°11'6 5.7
2015-Feb-28 06:33N 54°33' E 013°08'  
2015-Feb-22 13:33N 54°31' E 013°09'5 5.0
2015-Feb-22 12:33N 54°36' E 013°10'4 3.8
2015-Feb-22 11:33N 54°40' E 013°09'2 1.5
2015-Feb-22 10:28N 54°41' E 013°10'0 0.0
2015-Feb-22 09:33N 54°41' E 013°10'2 1.8
2015-Feb-22 08:28N 54°40' E 013°12'1 1.3
2015-Feb-22 07:33N 54°39' E 013°10'6 5.8
2015-Feb-22 06:33N 54°33' E 013°08'  
Track history (hours):
 
Tides and Currents Weather Stations Pressure Air Temp Water Temp Dewpoint Dewpoint Depression Visibility Wind Speed Wind Dir Waves Ship Positions

Albatros

Last reported at 2015-Feb-28 14:14 UTC. Time now 2015-Mar-07 04:26 UTC.
Position N 54°31' E 013°10'.

Length 16 m.

MMSI: 211226200.

Date/timePositionNaut miles runAvg speedWind from/ knotsBaromVisibWave heightAir tempDewpointWater temp
2015-Feb-28 14:14N 54°31' E 013°10'3 3.7
2015-Feb-28 13:33N 54°33' E 013°10'7 6.6
2015-Feb-28 12:33N 54°40' E 013°10'2 1.7
2015-Feb-28 11:32N 54°42' E 013°11'0 0.1
2015-Feb-28 09:23N 54°42' E 013°11'0 0.0
2015-Feb-28 08:33N 54°42' E 013°11'3 3.3
2015-Feb-28 07:33N 54°38' E 013°11'6 5.7
2015-Feb-28 06:33N 54°33' E 013°08'  
2015-Feb-22 13:33N 54°31' E 013°09'5 5.0
2015-Feb-22 12:33N 54°36' E 013°10'4 3.8
2015-Feb-22 11:33N 54°40' E 013°09'2 1.5
2015-Feb-22 10:28N 54°41' E 013°10'0 0.0
2015-Feb-22 09:33N 54°41' E 013°10'2 1.8
2015-Feb-22 08:28N 54°40' E 013°12'1 1.3
2015-Feb-22 07:33N 54°39' E 013°10'6 5.8
2015-Feb-22 06:33N 54°33' E 013°08'  

Dump ship's entire track history